CheckWX is a tool to help pilots better visualize weather data.  It is not intended as a substitute for an official pre-flight weather briefing.

13:20:14 UTC

EVRA METAR
Riga International Airport
Riga, Latvia
Current

30 mins ago

EVRA 211250Z 31006KT 240V340 9999 SCT031 BKN039 OVC045 15/11 Q1012 NOSIG
Observed
Sep-21 @ 12:50 UTC
Wind
  • 310° at 6 KTS
Visibility
10,000+ meters
Flight Rules
VFR
Cloud Levels
  • Scattered at 3,100' AGL
  • Broken at 3,900' AGL
  • Overcast at 4,500' AGL
Temperature
15°C / 59°F
Dewpoint
11°C / 52°F
Humidity
77%
Altimeter
29.88" Hg
Pressure
1011.92 hPa
Previous

60 mins ago

EVRA 211220Z 32008KT 280V350 9999 OVC045 15/11 Q1012 NOSIG
Observed
Sep-21 @ 12:20 UTC
Wind
  • 320° at 8 KTS
Visibility
10,000+ meters
Flight Rules
VFR
Cloud Levels
  • Overcast at 4,500' AGL
Temperature
15°C / 59°F
Dewpoint
11°C / 52°F
Humidity
77%
Altimeter
29.88" Hg
Pressure
1011.92 hPa
Previous

2 hours ago

EVRA 211150Z 31007KT 270V350 9999 FEW034CB BKN044 16/10 Q1012 NOSIG
Observed
Sep-21 @ 11:50 UTC
Wind
  • 310° at 7 KTS
Visibility
10,000+ meters
Flight Rules
VFR
Cloud Levels
  • Few at 3,400' AGL
  • Broken at 4,400' AGL
Temperature
16°C / 61°F
Dewpoint
10°C / 50°F
Humidity
68%
Altimeter
29.88" Hg
Pressure
1011.92 hPa